createdAt,value
2023-04-26T00:01:11.578Z,10.10
2023-04-26T00:06:08.995Z,8.48
2023-04-26T00:11:02.119Z,7.93
2023-04-26T00:15:55.344Z,8.00
2023-04-26T00:20:48.609Z,7.70
2023-04-26T00:25:43.107Z,8.85
2023-04-26T00:30:37.775Z,7.88
2023-04-26T00:35:31.148Z,8.88
2023-04-26T00:40:24.224Z,7.57
2023-04-26T00:45:18.982Z,9.43
2023-04-26T00:50:15.237Z,8.07
2023-04-26T00:55:09.445Z,8.80
2023-04-26T01:00:02.620Z,8.00
2023-04-26T01:04:57.134Z,7.95
2023-04-26T01:09:50.959Z,8.02
2023-04-26T01:14:45.102Z,8.82
2023-04-26T01:19:38.327Z,7.90
2023-04-26T01:24:36.714Z,11.27
2023-04-26T01:29:30.480Z,10.95
2023-04-26T01:34:23.552Z,8.48
2023-04-26T01:39:16.906Z,9.98
2023-04-26T01:44:11.408Z,12.98
2023-04-26T01:49:04.678Z,11.93
2023-04-26T01:53:58.009Z,9.15
2023-04-26T01:58:51.625Z,9.20
2023-04-26T02:03:46.384Z,9.25
2023-04-26T02:08:39.674Z,9.27
2023-04-26T02:13:32.890Z,9.20
2023-04-26T02:18:26.902Z,8.38
2023-04-26T02:23:21.340Z,8.50
2023-04-26T02:28:14.576Z,8.02
2023-04-26T02:33:08.751Z,9.65
2023-04-26T02:38:02.314Z,7.60
2023-04-26T02:42:57.016Z,7.45
2023-04-26T02:47:50.496Z,7.70
2023-04-26T02:52:43.685Z,10.18
2023-04-26T02:57:37.005Z,8.07
2023-04-26T03:02:34.679Z,7.70
2023-04-26T03:07:28.449Z,10.50
2023-04-26T03:12:21.580Z,8.38
2023-04-26T03:17:14.802Z,8.27
2023-04-26T03:22:09.372Z,8.15
2023-04-26T03:27:02.708Z,9.23
2023-04-26T03:31:56.118Z,8.32
2023-04-26T03:36:49.315Z,9.90
2023-04-26T03:41:44.018Z,8.35
2023-04-26T03:46:39.252Z,9.20
2023-04-26T03:51:32.459Z,8.40
2023-04-26T03:56:25.829Z,9.32
2023-04-26T04:01:21.205Z,10.70
2023-04-26T04:06:14.395Z,8.45
2023-04-26T04:11:09.494Z,12.27
2023-04-26T04:16:05.002Z,7.97
2023-04-26T04:20:59.883Z,8.35
2023-04-26T04:25:53.135Z,8.77
2023-04-26T04:30:47.427Z,8.57
2023-04-26T04:35:43.483Z,8.40
2023-04-26T04:40:38.577Z,7.72
2023-04-26T04:45:31.829Z,9.38
2023-04-26T04:50:26.707Z,7.07
2023-04-26T04:55:20.156Z,7.75
2023-04-26T05:00:16.037Z,11.07
2023-04-26T05:05:16.923Z,7.38
2023-04-26T05:10:11.213Z,11.45
2023-04-26T05:15:04.938Z,10.45
2023-04-26T05:20:06.515Z,8.63
2023-04-26T05:25:00.144Z,9.07
2023-04-26T05:29:53.277Z,9.10
2023-04-26T05:35:07.164Z,7.65
2023-04-26T05:40:00.626Z,7.53
2023-04-26T05:44:58.726Z,7.53
2023-04-26T05:49:51.895Z,7.25
2023-04-26T05:54:46.589Z,6.35
2023-04-26T05:59:39.979Z,7.85
2023-04-26T06:04:34.539Z,7.65
2023-04-26T06:09:34.531Z,8.07
2023-04-26T06:14:30.415Z,10.13
2023-04-26T06:19:29.176Z,7.90
2023-04-26T06:24:22.711Z,7.72
2023-04-26T06:29:19.463Z,7.68
2023-04-26T06:34:14.565Z,7.40
2023-04-26T06:39:08.241Z,10.48
2023-04-26T06:44:01.704Z,7.85
2023-04-26T06:48:57.646Z,9.40
2023-04-26T06:53:53.689Z,5.88
2023-04-26T06:59:00.964Z,7.82
2023-04-26T07:03:54.300Z,7.90
2023-04-26T07:08:47.808Z,11.27
2023-04-26T07:13:42.604Z,6.70
2023-04-26T07:18:36.152Z,6.72
2023-04-26T07:23:31.211Z,5.45
2023-04-26T07:28:24.589Z,4.95
2023-04-26T07:33:19.275Z,5.80
2023-04-26T07:38:14.683Z,3.55
2023-04-26T07:43:07.901Z,5.28
2023-04-26T07:48:01.334Z,4.43
2023-04-26T07:52:56.009Z,4.00
2023-04-26T07:57:49.195Z,4.43
2023-04-26T08:02:44.633Z,4.00
2023-04-26T08:07:38.057Z,4.07
2023-04-26T08:12:37.659Z,4.55
2023-04-26T08:17:31.499Z,4.45
2023-04-26T08:22:24.778Z,2.97
2023-04-26T08:27:23.765Z,5.75
2023-04-26T08:32:18.546Z,3.50
2023-04-26T08:37:12.475Z,3.60
2023-04-26T08:42:09.025Z,3.33
2023-04-26T08:47:09.927Z,3.72
2023-04-26T08:52:05.972Z,6.15
2023-04-26T08:57:00.889Z,8.43
2023-04-26T09:01:55.037Z,2.72
2023-04-26T09:06:51.019Z,4.03
2023-04-26T09:11:56.778Z,3.50
2023-04-26T09:16:52.165Z,2.33
2023-04-26T09:21:50.532Z,3.30
2023-04-26T09:26:43.869Z,2.42
2023-04-26T09:31:42.222Z,2.58
2023-04-26T09:36:51.680Z,3.40
2023-04-26T09:41:45.863Z,4.57
2023-04-26T09:46:40.850Z,3.22
2023-04-26T09:51:34.154Z,4.85
2023-04-26T09:56:27.397Z,4.05
2023-04-26T10:01:23.540Z,4.35
2023-04-26T10:06:21.600Z,3.00
2023-04-26T10:11:15.609Z,3.65
2023-04-26T10:16:11.001Z,4.65
2023-04-26T10:21:11.831Z,2.38
2023-04-26T10:26:07.721Z,4.05
2023-04-26T10:31:01.669Z,3.17
2023-04-26T10:36:09.276Z,3.75
2023-04-26T10:41:36.176Z,2.72
2023-04-26T10:46:40.959Z,2.08
2023-04-26T10:51:35.578Z,2.50
2023-04-26T10:56:55.283Z,1.70
2023-04-26T11:01:48.569Z,6.18
2023-04-26T11:06:52.398Z,5.40
2023-04-26T11:11:54.935Z,2.33
2023-04-26T11:16:48.371Z,2.65
2023-04-26T11:21:42.013Z,2.45
2023-04-26T11:26:39.815Z,5.28
2023-04-26T11:31:36.599Z,2.45
2023-04-26T11:36:30.130Z,1.80
2023-04-26T11:41:29.028Z,2.53
2023-04-26T11:46:24.079Z,3.70
2023-04-26T11:51:19.274Z,1.88
2023-04-26T11:56:17.300Z,3.15
2023-04-26T12:01:10.612Z,2.58
2023-04-26T12:06:06.632Z,2.17
2023-04-26T12:11:04.678Z,5.65
2023-04-26T12:16:26.160Z,2.60
2023-04-26T12:21:21.120Z,1.77
2023-04-26T12:26:16.614Z,3.70
2023-04-26T12:31:11.952Z,2.03
2023-04-26T12:36:12.686Z,3.78
2023-04-26T12:41:13.123Z,2.83
2023-04-26T12:46:07.916Z,1.38
2023-04-26T12:51:01.514Z,2.00
2023-04-26T12:55:57.064Z,4.03
2023-04-26T13:00:51.335Z,4.60
2023-04-26T13:05:46.442Z,6.05
2023-04-26T13:10:40.194Z,4.38
2023-04-26T13:15:33.620Z,4.43
2023-04-26T13:20:28.946Z,1.90
2023-04-26T13:25:24.954Z,4.28
2023-04-26T13:30:18.246Z,4.80
2023-04-26T13:35:15.408Z,2.40
2023-04-26T13:40:11.405Z,2.05
2023-04-26T13:45:09.572Z,2.17
2023-04-26T13:50:03.089Z,3.28
2023-04-26T13:54:56.416Z,1.67
2023-04-26T13:59:49.680Z,2.97
2023-04-26T14:04:44.618Z,7.15
2023-04-26T14:09:38.145Z,1.48
2023-04-26T14:14:31.268Z,2.58
2023-04-26T14:19:26.248Z,1.63
2023-04-26T14:24:23.512Z,3.25
2023-04-26T14:29:16.797Z,3.25
2023-04-26T14:34:09.947Z,1.45
2023-04-26T14:39:03.176Z,1.25
2023-04-26T14:43:57.705Z,4.18
2023-04-26T14:48:50.869Z,2.30
2023-04-26T14:53:44.041Z,2.08
2023-04-26T14:58:37.180Z,3.78
2023-04-26T15:03:34.736Z,3.33
2023-04-26T15:08:28.025Z,14.90
2023-04-26T15:13:21.100Z,6.38
2023-04-26T15:18:14.412Z,5.05
2023-04-26T15:23:09.043Z,7.65
2023-04-26T15:28:02.244Z,3.72
2023-04-26T15:32:55.352Z,5.63
2023-04-26T15:37:49.655Z,2.90
2023-04-26T15:42:44.269Z,3.22
2023-04-26T15:47:38.049Z,3.38
2023-04-26T15:52:31.208Z,3.13
2023-04-26T15:57:24.590Z,5.13
2023-04-26T16:02:19.235Z,2.70
2023-04-26T16:07:12.375Z,5.47
2023-04-26T16:12:06.149Z,2.30
2023-04-26T16:17:00.004Z,3.45
2023-04-26T16:21:54.558Z,3.40
2023-04-26T16:26:53.222Z,2.60
2023-04-26T16:31:46.401Z,3.78
2023-04-26T16:36:39.765Z,4.53
2023-04-26T16:41:34.631Z,2.22
2023-04-26T16:46:28.536Z,3.63
2023-04-26T16:51:21.757Z,3.30
2023-04-26T16:56:14.985Z,4.13
2023-04-26T17:01:09.538Z,2.47
2023-04-26T17:06:02.713Z,2.30
2023-04-26T17:10:55.827Z,3.38
2023-04-26T17:15:49.352Z,4.15
2023-04-26T17:20:44.087Z,4.45
2023-04-26T17:25:37.470Z,4.70
2023-04-26T17:30:30.791Z,6.68
2023-04-26T17:35:24.313Z,4.22
2023-04-26T17:40:19.801Z,5.85
2023-04-26T17:45:14.139Z,4.03
2023-04-26T17:50:08.959Z,6.60
2023-04-26T17:55:02.360Z,4.88
2023-04-26T17:59:57.206Z,3.92
2023-04-26T18:04:50.541Z,4.93
2023-04-26T18:09:43.938Z,5.88
2023-04-26T18:14:44.358Z,7.22
2023-04-26T18:19:39.078Z,6.35
2023-04-26T18:24:32.278Z,5.10
2023-04-26T18:29:25.498Z,6.82
2023-04-26T18:34:18.900Z,4.03
2023-04-26T18:39:13.574Z,4.47
2023-04-26T18:44:10.709Z,4.55
2023-04-26T18:49:04.702Z,4.57
2023-04-26T18:53:57.992Z,3.30
2023-04-26T18:58:52.894Z,4.38
2023-04-26T19:03:49.506Z,3.55
2023-04-26T19:08:43.510Z,5.90
2023-04-26T19:13:36.933Z,2.78
2023-04-26T19:18:36.164Z,3.38
2023-04-26T19:23:29.544Z,3.38
2023-04-26T19:28:25.550Z,1.90
2023-04-26T19:33:19.093Z,3.97
2023-04-26T19:38:13.993Z,2.30
2023-04-26T19:43:07.271Z,2.13
2023-04-26T19:48:00.576Z,2.42
2023-04-26T19:52:54.862Z,2.72
2023-04-26T19:57:52.110Z,2.20
2023-04-26T20:02:45.625Z,2.50
2023-04-26T20:07:38.984Z,4.10
2023-04-26T20:12:32.557Z,2.55
2023-04-26T20:17:27.206Z,4.25
2023-04-26T20:22:21.146Z,3.40
2023-04-26T20:27:14.324Z,3.72
2023-04-26T20:32:07.536Z,2.35
2023-04-26T20:37:02.180Z,2.90
2023-04-26T20:41:55.930Z,3.35
2023-04-26T20:46:49.130Z,3.60
2023-04-26T20:51:42.530Z,2.63
2023-04-26T20:56:37.108Z,3.45
2023-04-26T21:01:33.892Z,4.18
2023-04-26T21:06:27.270Z,3.72
2023-04-26T21:11:20.681Z,3.20
2023-04-26T21:16:15.295Z,4.68
2023-04-26T21:21:12.276Z,3.42
2023-04-26T21:26:05.925Z,3.60
2023-04-26T21:31:18.305Z,3.28
2023-04-26T21:36:15.351Z,2.72
2023-04-26T21:41:11.668Z,2.45
2023-04-26T21:46:06.567Z,3.40
2023-04-26T21:51:05.715Z,3.15
2023-04-26T21:56:16.232Z,3.28
2023-04-26T22:06:08.319Z,3.33
2023-04-26T22:11:02.744Z,3.13
2023-04-26T22:15:56.092Z,3.75
2023-04-26T22:20:51.270Z,3.38
2023-04-26T22:25:45.823Z,3.05
2023-04-26T22:30:39.133Z,3.08
2023-04-26T22:35:32.459Z,3.17
2023-04-26T22:40:28.869Z,3.17
2023-04-26T22:45:23.909Z,5.20
2023-04-26T22:50:17.191Z,4.00
2023-04-26T22:55:11.129Z,5.22
2023-04-26T23:00:05.772Z,4.63
2023-04-26T23:05:00.754Z,3.35
2023-04-26T23:09:54.193Z,3.95
2023-04-26T23:14:47.934Z,3.85
2023-04-26T23:19:41.338Z,5.13
2023-04-26T23:24:35.911Z,5.43
2023-04-26T23:29:29.252Z,4.53
2023-04-26T23:34:22.653Z,5.65
2023-04-26T23:39:15.971Z,6.65
2023-04-26T23:44:10.833Z,5.68
2023-04-26T23:49:04.071Z,6.45
2023-04-26T23:53:57.450Z,5.50
2023-04-26T23:58:50.771Z,6.93
